createdAt,value
2016-11-05T00:00:25.157Z,99.99
2016-11-05T00:01:33.878Z,99.99
2016-11-05T00:02:42.568Z,99.99
2016-11-05T00:03:51.252Z,99.99
2016-11-05T00:04:59.944Z,99.99
2016-11-05T00:06:08.632Z,99.99
2016-11-05T00:07:17.322Z,99.99
2016-11-05T00:08:26.008Z,99.99
2016-11-05T00:09:34.694Z,99.99
2016-11-05T00:10:43.380Z,99.99
2016-11-05T00:11:52.068Z,99.99
2016-11-05T00:13:00.762Z,99.99
2016-11-05T00:14:09.453Z,99.99
2016-11-05T00:15:18.148Z,99.99
2016-11-05T00:16:26.831Z,99.99
2016-11-05T00:17:35.558Z,99.99
2016-11-05T00:18:44.241Z,99.99
2016-11-05T00:19:52.929Z,99.99
2016-11-05T00:21:01.617Z,99.99
2016-11-05T00:22:10.314Z,99.99
2016-11-05T00:23:19.004Z,99.99
2016-11-05T00:24:27.730Z,99.99
2016-11-05T00:25:36.450Z,99.99
2016-11-05T00:26:45.136Z,99.99
2016-11-05T00:27:53.826Z,99.99
2016-11-05T00:29:02.826Z,99.99
2016-11-05T00:30:11.551Z,99.99
2016-11-05T00:31:20.239Z,99.99
2016-11-05T00:32:28.929Z,99.99
2016-11-05T00:33:37.616Z,99.99
2016-11-05T00:34:46.299Z,99.99
2016-11-05T00:35:54.992Z,99.99
2016-11-05T00:37:03.677Z,99.99
2016-11-05T00:38:12.411Z,99.99
2016-11-05T00:39:21.141Z,99.99
2016-11-05T00:40:30.140Z,99.99
2016-11-05T00:41:38.828Z,99.99
2016-11-05T00:42:47.516Z,99.99
2016-11-05T00:43:56.200Z,99.99
2016-11-05T00:45:04.899Z,99.99
2016-11-05T00:46:13.588Z,99.99
2016-11-05T00:47:22.278Z,99.99
2016-11-05T00:48:30.967Z,99.99
2016-11-05T00:49:39.654Z,99.99
2016-11-05T00:50:48.342Z,99.99
2016-11-05T00:51:57.033Z,99.99
2016-11-05T00:53:05.728Z,99.99
2016-11-05T00:54:14.472Z,99.99
2016-11-05T00:55:23.157Z,99.99
2016-11-05T00:56:31.849Z,99.99
2016-11-05T00:57:40.532Z,99.99
2016-11-05T00:58:49.224Z,99.99
2016-11-05T00:59:58.224Z,99.99
2016-11-05T01:01:06.915Z,99.99
2016-11-05T01:02:15.605Z,99.99
2016-11-05T01:03:24.335Z,99.99
2016-11-05T01:04:33.022Z,99.99
2016-11-05T01:05:41.751Z,99.99
2016-11-05T01:06:50.475Z,99.99
2016-11-05T01:07:59.162Z,99.99
2016-11-05T01:09:07.852Z,99.99
2016-11-05T01:10:16.542Z,99.99
2016-11-05T01:11:25.273Z,99.99
2016-11-05T01:12:33.967Z,99.99
2016-11-05T01:13:42.662Z,99.99
2016-11-05T01:14:51.348Z,99.99
2016-11-05T01:16:00.062Z,99.99
2016-11-05T01:17:08.755Z,99.99
2016-11-05T01:18:17.454Z,99.99
2016-11-05T01:19:26.142Z,99.99
2016-11-05T01:20:34.829Z,99.99
2016-11-05T01:21:43.516Z,99.99
2016-11-05T01:22:52.203Z,99.99
2016-11-05T01:24:00.907Z,99.99
2016-11-05T01:25:09.591Z,99.99
2016-11-05T01:26:18.283Z,99.99
2016-11-05T01:27:27.014Z,99.99
2016-11-05T01:28:35.704Z,99.99
2016-11-05T01:29:44.392Z,99.99
2016-11-05T01:30:53.080Z,99.99
2016-11-05T01:32:01.777Z,99.99
2016-11-05T01:33:10.482Z,99.99
2016-11-05T01:34:19.166Z,99.99
2016-11-05T01:35:27.858Z,99.99
2016-11-05T01:36:36.544Z,99.99
2016-11-05T01:37:45.231Z,99.99
2016-11-05T01:38:54.230Z,99.99
2016-11-05T01:40:02.920Z,99.99
2016-11-05T01:41:11.616Z,99.99
2016-11-05T01:42:20.307Z,99.99
2016-11-05T01:43:28.997Z,99.99
2016-11-05T01:44:37.687Z,99.99
2016-11-05T01:45:46.378Z,99.99
2016-11-05T01:46:55.068Z,99.99
2016-11-05T01:48:03.751Z,99.99
2016-11-05T01:49:12.439Z,99.99
2016-11-05T01:50:21.126Z,99.99
2016-11-05T01:51:29.841Z,99.99
2016-11-05T01:52:38.630Z,99.99
2016-11-05T01:53:47.640Z,99.99
2016-11-05T01:54:56.329Z,99.99
2016-11-05T01:56:05.052Z,99.99
2016-11-05T01:57:13.740Z,99.99
2016-11-05T01:58:22.433Z,99.99
2016-11-05T01:59:31.130Z,99.99
2016-11-05T02:00:39.810Z,99.99
2016-11-05T02:01:48.502Z,99.99
2016-11-05T02:02:57.189Z,99.99
2016-11-05T02:04:05.875Z,99.99
2016-11-05T02:05:14.568Z,99.99
2016-11-05T02:06:23.254Z,99.99
2016-11-05T02:07:31.941Z,99.99
2016-11-05T02:08:40.632Z,99.99
2016-11-05T02:09:49.320Z,99.99
2016-11-05T02:10:58.007Z,99.99
2016-11-05T02:12:06.694Z,99.99
2016-11-05T02:13:15.417Z,99.99
2016-11-05T02:14:24.136Z,99.99
2016-11-05T02:15:32.830Z,99.99
2016-11-05T02:16:41.522Z,99.99
2016-11-05T02:17:50.208Z,99.99
2016-11-05T02:18:58.896Z,99.99
2016-11-05T02:20:07.616Z,99.99
2016-11-05T02:21:16.302Z,99.99
2016-11-05T02:22:24.998Z,99.99
2016-11-05T02:23:33.685Z,99.99
2016-11-05T02:24:42.376Z,99.99
2016-11-05T02:25:51.069Z,99.99
2016-11-05T02:26:59.766Z,99.99
2016-11-05T02:28:08.459Z,99.99
2016-11-05T02:29:17.153Z,99.99
2016-11-05T02:30:25.840Z,99.99
2016-11-05T02:31:34.522Z,99.99
2016-11-05T02:32:43.207Z,99.99
2016-11-05T02:33:51.895Z,99.99
2016-11-05T02:35:00.582Z,99.99
2016-11-05T02:36:09.264Z,99.99
2016-11-05T02:37:17.948Z,99.99
2016-11-05T02:38:26.635Z,99.99
2016-11-05T02:39:35.318Z,99.99
2016-11-05T02:40:44.004Z,99.99
2016-11-05T02:41:52.699Z,99.99
2016-11-05T02:43:01.410Z,99.99
2016-11-05T02:44:10.092Z,99.99
2016-11-05T02:45:19.093Z,99.99
2016-11-05T02:46:27.786Z,99.99
2016-11-05T02:47:36.475Z,99.99
2016-11-05T02:48:45.199Z,99.99
2016-11-05T02:49:53.888Z,99.99
2016-11-05T02:51:02.580Z,99.99
2016-11-05T02:52:11.271Z,99.99
2016-11-05T02:53:19.962Z,99.99
2016-11-05T02:54:28.690Z,99.99
2016-11-05T02:55:37.379Z,99.99
2016-11-05T02:56:46.065Z,99.99
2016-11-05T02:57:54.765Z,99.99
2016-11-05T02:59:03.449Z,99.99
2016-11-05T03:00:12.139Z,99.99
2016-11-05T03:01:20.862Z,99.99
2016-11-05T03:02:29.549Z,99.99
2016-11-05T03:03:38.241Z,99.99
2016-11-05T03:04:46.935Z,99.99
2016-11-05T03:05:55.628Z,99.99
2016-11-05T03:07:04.314Z,99.99
2016-11-05T03:08:13.006Z,99.99
2016-11-05T03:09:21.694Z,99.99
2016-11-05T03:10:30.384Z,99.99
2016-11-05T03:11:39.067Z,99.99
2016-11-05T03:12:47.761Z,99.99
2016-11-05T03:13:56.481Z,99.99
2016-11-05T03:15:05.171Z,99.99
2016-11-05T03:16:13.857Z,99.99
2016-11-05T03:17:22.586Z,99.99
2016-11-05T03:18:31.267Z,99.99
2016-11-05T03:19:39.985Z,99.99
2016-11-05T03:20:48.670Z,99.99
2016-11-05T03:21:57.357Z,99.99
2016-11-05T03:23:06.079Z,99.99
2016-11-05T03:24:14.771Z,99.99
2016-11-05T03:25:23.459Z,99.99
2016-11-05T03:26:32.156Z,99.99
2016-11-05T03:27:40.849Z,99.99
2016-11-05T03:28:49.534Z,99.99
2016-11-05T03:29:58.221Z,99.99
2016-11-05T03:31:06.922Z,99.99
2016-11-05T03:32:15.611Z,99.99
2016-11-05T03:33:24.296Z,99.99
2016-11-05T03:34:32.987Z,99.99
2016-11-05T03:35:41.672Z,99.99
2016-11-05T03:36:50.362Z,99.99
2016-11-05T03:37:59.056Z,99.99
2016-11-05T03:39:07.782Z,99.99
2016-11-05T03:40:16.517Z,99.99
2016-11-05T03:41:25.204Z,99.99
2016-11-05T03:42:33.894Z,99.99
2016-11-05T03:43:42.613Z,99.99
2016-11-05T03:44:51.306Z,99.99
2016-11-05T03:45:59.990Z,99.99
2016-11-05T03:47:08.679Z,99.99
2016-11-05T03:48:17.367Z,99.99
2016-11-05T03:49:26.060Z,99.99
2016-11-05T03:50:34.785Z,99.99
2016-11-05T03:51:43.476Z,99.99
2016-11-05T03:52:52.162Z,99.99
2016-11-05T03:54:00.849Z,99.99
2016-11-05T03:55:09.534Z,99.99
2016-11-05T03:56:18.218Z,99.99
2016-11-05T03:57:26.902Z,99.99
2016-11-05T03:58:35.589Z,99.99
2016-11-05T03:59:44.272Z,99.99
2016-11-05T04:00:52.963Z,99.99
2016-11-05T04:02:01.651Z,99.99
2016-11-05T04:03:10.343Z,99.99
2016-11-05T04:04:19.029Z,99.99
2016-11-05T04:05:27.718Z,99.99
2016-11-05T04:06:36.403Z,99.99
2016-11-05T04:07:45.094Z,99.99
2016-11-05T04:08:53.785Z,99.99
2016-11-05T04:10:02.469Z,99.99
2016-11-05T04:11:11.162Z,99.99
2016-11-05T04:12:19.849Z,99.99
2016-11-05T04:13:28.538Z,99.99
2016-11-05T04:14:37.226Z,99.99
2016-11-05T04:15:45.973Z,99.99
2016-11-05T04:16:54.663Z,99.99
2016-11-05T04:18:03.663Z,99.99
2016-11-05T04:19:12.352Z,99.99
2016-11-05T04:20:21.043Z,99.99
2016-11-05T04:21:29.730Z,99.99
2016-11-05T04:22:38.421Z,99.99
2016-11-05T04:23:47.111Z,99.99
2016-11-05T04:24:55.797Z,99.99
2016-11-05T04:26:04.489Z,99.99
2016-11-05T04:27:13.179Z,99.99
2016-11-05T04:28:21.869Z,99.99
2016-11-05T04:29:30.554Z,99.99
2016-11-05T04:30:39.239Z,99.99
2016-11-05T04:31:47.928Z,99.99
2016-11-05T04:32:56.615Z,99.99
2016-11-05T04:34:05.618Z,99.99
2016-11-05T04:35:14.312Z,99.99
2016-11-05T04:36:23.003Z,99.99
2016-11-05T04:37:31.695Z,99.99
2016-11-05T04:38:40.386Z,99.99
2016-11-05T04:39:49.122Z,99.99
2016-11-05T04:40:57.807Z,99.99
2016-11-05T04:42:06.499Z,99.99
2016-11-05T04:43:15.186Z,99.99
2016-11-05T04:44:23.872Z,99.99
2016-11-05T04:45:32.566Z,99.99
2016-11-05T04:46:41.288Z,99.99
2016-11-05T04:47:49.982Z,99.99
2016-11-05T04:48:58.672Z,99.99
2016-11-05T04:50:07.358Z,99.99
2016-11-05T04:51:16.051Z,99.99
2016-11-05T04:52:24.737Z,99.99
2016-11-05T04:53:33.467Z,99.99
2016-11-05T04:54:42.154Z,99.99
2016-11-05T04:55:50.850Z,99.99
2016-11-05T04:56:59.537Z,99.99
2016-11-05T04:58:08.224Z,99.99
2016-11-05T04:59:16.922Z,99.99
2016-11-05T05:00:25.610Z,99.99
2016-11-05T05:01:34.363Z,99.99
2016-11-05T05:02:43.052Z,99.99
2016-11-05T05:03:51.775Z,99.99
2016-11-05T05:05:00.469Z,99.99
2016-11-05T05:06:09.167Z,99.99
2016-11-05T05:07:17.883Z,99.99
2016-11-05T05:08:26.568Z,99.99
2016-11-05T05:09:35.256Z,99.99
2016-11-05T05:10:43.966Z,99.99
2016-11-05T05:11:52.967Z,99.99
2016-11-05T05:13:01.656Z,99.99
2016-11-05T05:14:10.343Z,99.99
2016-11-05T05:15:19.029Z,99.99
2016-11-05T05:16:27.720Z,99.99
2016-11-05T05:17:36.408Z,99.99
2016-11-05T05:18:45.096Z,99.99
2016-11-05T05:19:53.779Z,99.99
2016-11-05T05:21:02.780Z,99.99
2016-11-05T05:22:11.474Z,99.99
2016-11-05T05:23:20.158Z,99.99
2016-11-05T05:24:28.881Z,99.99
2016-11-05T05:25:37.568Z,99.99
2016-11-05T05:26:46.263Z,99.99
2016-11-05T05:27:54.951Z,99.99
2016-11-05T05:29:03.637Z,99.99
2016-11-05T05:30:12.331Z,99.99
2016-11-05T05:31:21.022Z,99.99
2016-11-05T05:32:29.720Z,99.99
2016-11-05T05:33:38.408Z,99.99
2016-11-05T05:34:47.095Z,99.99
2016-11-05T05:35:55.786Z,99.99
2016-11-05T05:37:04.473Z,99.99
2016-11-05T05:38:13.162Z,99.99
2016-11-05T05:39:21.852Z,99.99
2016-11-05T05:40:30.542Z,99.99
2016-11-05T05:41:39.279Z,99.99
2016-11-05T05:42:47.976Z,99.99
2016-11-05T05:43:56.702Z,99.99
2016-11-05T05:45:05.396Z,99.99
2016-11-05T05:46:14.083Z,99.99
2016-11-05T05:47:22.777Z,99.99
2016-11-05T05:48:31.470Z,99.99
2016-11-05T05:49:40.155Z,99.99
2016-11-05T05:50:48.874Z,99.99
2016-11-05T05:51:57.567Z,99.99
2016-11-05T05:53:06.254Z,99.99
2016-11-05T05:54:14.977Z,99.99
2016-11-05T05:55:23.663Z,99.99
2016-11-05T05:56:32.351Z,99.99
2016-11-05T05:57:41.038Z,99.99
2016-11-05T05:58:49.723Z,99.99
2016-11-05T05:59:58.411Z,99.99
2016-11-05T06:01:07.421Z,99.99
2016-11-05T06:02:16.111Z,99.99
2016-11-05T06:03:24.800Z,99.99
2016-11-05T06:04:33.488Z,99.99
2016-11-05T06:05:42.498Z,99.99
2016-11-05T06:06:51.188Z,99.99
2016-11-05T06:07:59.877Z,99.99
2016-11-05T06:09:08.602Z,99.99
2016-11-05T06:10:17.293Z,99.99
2016-11-05T06:11:25.977Z,99.99
2016-11-05T06:12:34.669Z,99.99
2016-11-05T06:13:43.396Z,99.99
2016-11-05T06:14:52.078Z,99.99
2016-11-05T06:16:00.765Z,99.99
2016-11-05T06:17:09.451Z,99.99
2016-11-05T06:18:18.141Z,99.99
2016-11-05T06:19:26.830Z,99.99
2016-11-05T06:20:35.526Z,99.99
2016-11-05T06:21:44.210Z,99.99
2016-11-05T06:22:52.902Z,99.99
2016-11-05T06:24:01.588Z,99.99
2016-11-05T06:25:10.276Z,99.99
2016-11-05T06:26:18.960Z,99.99
2016-11-05T06:27:27.648Z,99.99
2016-11-05T06:28:36.343Z,99.99
2016-11-05T06:29:45.028Z,99.99
2016-11-05T06:30:53.717Z,99.99
2016-11-05T06:32:02.405Z,99.99
2016-11-05T06:33:11.094Z,99.99
2016-11-05T06:34:20.102Z,99.99
2016-11-05T06:35:28.785Z,99.99
2016-11-05T06:36:37.472Z,99.99
2016-11-05T06:37:46.160Z,99.99
2016-11-05T06:38:54.848Z,99.99
2016-11-05T06:40:03.538Z,99.99
2016-11-05T06:41:12.225Z,99.99
2016-11-05T06:42:20.913Z,99.99
2016-11-05T06:43:29.604Z,99.99
2016-11-05T06:44:38.329Z,99.99
2016-11-05T06:45:47.025Z,99.99
2016-11-05T06:46:55.747Z,99.99
2016-11-05T06:48:04.449Z,99.99
2016-11-05T06:49:13.141Z,99.99
2016-11-05T06:50:21.834Z,99.99
2016-11-05T06:51:30.523Z,99.99
2016-11-05T06:52:39.208Z,99.99
2016-11-05T06:53:47.901Z,99.99
2016-11-05T06:54:56.588Z,99.99
2016-11-05T06:56:05.276Z,99.99
2016-11-05T06:57:13.967Z,99.99
2016-11-05T06:58:22.657Z,99.99
2016-11-05T06:59:31.381Z,99.99
2016-11-05T07:00:40.064Z,99.99
2016-11-05T07:01:48.761Z,99.99
2016-11-05T07:02:57.450Z,99.99
2016-11-05T07:04:06.451Z,99.99
2016-11-05T07:05:15.143Z,99.99
2016-11-05T07:06:23.837Z,99.99
2016-11-05T07:07:32.537Z,99.99
2016-11-05T07:08:41.223Z,99.99
2016-11-05T07:09:49.914Z,99.99
2016-11-05T07:10:58.600Z,99.99
2016-11-05T07:12:07.292Z,99.99
2016-11-05T07:13:15.978Z,99.99
2016-11-05T07:14:24.665Z,99.99
2016-11-05T07:15:33.388Z,99.99
2016-11-05T07:16:42.075Z,99.99
2016-11-05T07:17:50.763Z,99.99
2016-11-05T07:18:59.454Z,99.99
2016-11-05T07:20:08.141Z,99.99
2016-11-05T07:21:16.830Z,99.99
2016-11-05T07:22:25.528Z,99.99
2016-11-05T07:23:34.218Z,99.99
2016-11-05T07:24:42.903Z,99.99
2016-11-05T07:25:51.595Z,99.99
2016-11-05T07:27:00.319Z,99.99
2016-11-05T07:28:09.009Z,99.99
2016-11-05T07:29:17.696Z,99.99
2016-11-05T07:30:26.385Z,99.99
2016-11-05T07:31:35.079Z,99.99
2016-11-05T07:32:43.795Z,99.99
2016-11-05T07:33:52.481Z,99.99
2016-11-05T07:35:01.166Z,99.99
2016-11-05T07:36:09.882Z,99.99
2016-11-05T07:37:18.568Z,99.99
2016-11-05T07:38:27.260Z,99.99
2016-11-05T07:39:35.992Z,99.99
2016-11-05T07:40:44.682Z,99.99
2016-11-05T07:41:53.384Z,99.61
2016-11-05T07:43:02.081Z,99.99
2016-11-05T07:44:10.771Z,99.99
2016-11-05T07:45:19.461Z,99.99
2016-11-05T07:46:28.489Z,99.99
2016-11-05T07:47:37.177Z,99.99
2016-11-05T07:48:45.895Z,99.99
2016-11-05T07:49:54.585Z,99.71
2016-11-05T07:51:03.274Z,99.61
2016-11-05T07:52:11.964Z,99.99
2016-11-05T07:53:20.658Z,99.52
2016-11-05T07:54:29.349Z,99.23
2016-11-05T07:55:38.039Z,99.57
2016-11-05T07:56:46.757Z,99.66
2016-11-05T07:57:55.447Z,98.9
2016-11-05T07:59:04.137Z,98.62
2016-11-05T08:00:12.826Z,99
2016-11-05T08:01:21.513Z,96.92
2016-11-05T08:02:30.198Z,96.45
2016-11-05T08:03:38.883Z,96.26
2016-11-05T08:04:47.892Z,96.45
2016-11-05T08:05:56.578Z,97.49
2016-11-05T08:07:05.272Z,98.33
2016-11-05T08:08:13.964Z,97.58
2016-11-05T08:09:22.651Z,97.58
2016-11-05T08:10:31.342Z,97.2
2016-11-05T08:11:40.031Z,96.16
2016-11-05T08:12:48.718Z,96.45
2016-11-05T08:13:57.404Z,95.59
2016-11-05T08:15:06.088Z,95.12
2016-11-05T08:16:14.779Z,95.03
2016-11-05T08:17:23.462Z,95.5
2016-11-05T08:18:32.151Z,96.54
2016-11-05T08:19:40.838Z,96.73
2016-11-05T08:20:49.525Z,96.73
2016-11-05T08:21:58.212Z,95.88
2016-11-05T08:23:06.900Z,95.5
2016-11-05T08:24:15.588Z,95.97
2016-11-05T08:25:24.275Z,95.4
2016-11-05T08:26:32.991Z,95.03
2016-11-05T08:27:41.723Z,94.56
2016-11-05T08:28:50.410Z,94.84
2016-11-05T08:29:59.099Z,94.27
2016-11-05T08:31:07.824Z,94.65
2016-11-05T08:32:16.511Z,94.65
2016-11-05T08:33:25.215Z,94.46
2016-11-05T08:34:33.903Z,93.89
2016-11-05T08:35:42.597Z,94.56
2016-11-05T08:36:51.319Z,94.93
2016-11-05T08:38:00.007Z,94.37
2016-11-05T08:39:08.694Z,94.27
2016-11-05T08:40:17.394Z,94.46
2016-11-05T08:41:26.080Z,95.03
2016-11-05T08:42:34.766Z,94.65
2016-11-05T08:43:43.465Z,94.46
2016-11-05T08:44:52.156Z,93.51
2016-11-05T08:46:00.853Z,93.89
2016-11-05T08:47:09.552Z,92.85
2016-11-05T08:48:18.247Z,93.8
2016-11-05T08:49:26.937Z,92.94
2016-11-05T08:50:35.631Z,93.04
2016-11-05T08:51:44.350Z,92.57
2016-11-05T08:52:53.038Z,93.7
2016-11-05T08:54:01.723Z,94.08
2016-11-05T08:55:10.464Z,93.51
2016-11-05T08:56:19.153Z,93.04
2016-11-05T08:57:27.845Z,92
2016-11-05T08:58:36.568Z,92
2016-11-05T08:59:45.256Z,91.72
2016-11-05T09:00:53.950Z,91.91
2016-11-05T09:02:02.639Z,91.91
2016-11-05T09:03:11.326Z,91.43
2016-11-05T09:04:20.019Z,91.34
2016-11-05T09:05:28.710Z,91.81
2016-11-05T09:06:37.401Z,92.1
2016-11-05T09:07:46.095Z,91.24
2016-11-05T09:08:54.792Z,90.58
2016-11-05T09:10:03.479Z,91.24
2016-11-05T09:11:12.168Z,90.39
2016-11-05T09:12:20.870Z,90.49
2016-11-05T09:13:29.557Z,90.86
2016-11-05T09:14:38.250Z,91.05
2016-11-05T09:15:46.938Z,90.44
2016-11-05T09:16:55.627Z,89.54
2016-11-05T09:18:04.315Z,90.11
2016-11-05T09:19:13.008Z,90.3
2016-11-05T09:20:21.697Z,90.01
2016-11-05T09:21:30.391Z,90.2
2016-11-05T09:22:39.149Z,89.54
2016-11-05T09:23:47.840Z,89.26
2016-11-05T09:24:56.539Z,89.45
2016-11-05T09:26:05.234Z,89.83
2016-11-05T09:27:13.926Z,88.88
2016-11-05T09:28:22.615Z,89.54
2016-11-05T09:29:31.339Z,89.36
2016-11-05T09:30:40.063Z,89.92
2016-11-05T09:31:48.755Z,89.54
2016-11-05T09:32:57.447Z,89.64
2016-11-05T09:34:06.139Z,89.92
2016-11-05T09:35:14.830Z,89.73
2016-11-05T09:36:23.518Z,89.54
2016-11-05T09:37:32.215Z,88.79
2016-11-05T09:38:40.904Z,88.98
2016-11-05T09:39:49.591Z,89.73
2016-11-05T09:40:58.276Z,89.36
2016-11-05T09:42:06.963Z,88.31
2016-11-05T09:43:15.653Z,89.36
2016-11-05T09:44:24.340Z,89.54
2016-11-05T09:45:33.066Z,89.73
2016-11-05T09:46:41.768Z,90.01
2016-11-05T09:47:50.460Z,89.73
2016-11-05T09:48:59.181Z,89.45
2016-11-05T09:50:07.868Z,90.49
2016-11-05T09:51:16.555Z,91.15
2016-11-05T09:52:25.248Z,90.2
2016-11-05T09:53:34.137Z,88.79
2016-11-05T09:54:42.832Z,90.11
2016-11-05T09:55:51.552Z,89.83
2016-11-05T09:57:00.241Z,89.73
2016-11-05T09:58:08.930Z,90.11
2016-11-05T09:59:17.666Z,88.98
2016-11-05T10:00:26.359Z,90.2
2016-11-05T10:01:35.051Z,91.24
2016-11-05T10:02:43.747Z,91.43
2016-11-05T10:03:52.435Z,91.05
2016-11-05T10:05:01.120Z,91.05
2016-11-05T10:06:10.130Z,90.11
2016-11-05T10:07:18.827Z,89.73
2016-11-05T10:08:27.556Z,89.73
2016-11-05T10:09:36.282Z,89.73
2016-11-05T10:10:44.970Z,89.54
2016-11-05T10:11:53.659Z,88.69
2016-11-05T10:13:02.347Z,89.45
2016-11-05T10:14:11.099Z,89.45
2016-11-05T10:15:19.789Z,90.01
2016-11-05T10:16:28.489Z,90.3
2016-11-05T10:17:37.182Z,89.36
2016-11-05T10:18:45.870Z,88.88
2016-11-05T10:19:54.580Z,87.84
2016-11-05T10:21:03.266Z,88.41
2016-11-05T10:22:11.954Z,89.26
2016-11-05T10:23:20.643Z,88.12
2016-11-05T10:24:29.340Z,88.31
2016-11-05T10:25:38.033Z,88.79
2016-11-05T10:26:46.724Z,88.98
2016-11-05T10:27:55.413Z,88.5
2016-11-05T10:29:04.104Z,88.69
2016-11-05T10:30:12.805Z,87.37
2016-11-05T10:31:21.499Z,88.22
2016-11-05T10:32:30.186Z,88.12
2016-11-05T10:33:39.018Z,88.69
2016-11-05T10:34:47.706Z,89.26
2016-11-05T10:35:56.396Z,89.12
2016-11-05T10:37:05.105Z,89.69
2016-11-05T10:38:13.793Z,88.98
2016-11-05T10:39:22.481Z,89.02
2016-11-05T10:40:31.174Z,88.83
2016-11-05T10:41:39.867Z,89.59
2016-11-05T10:42:48.553Z,88.74
2016-11-05T10:43:57.243Z,89.31
2016-11-05T10:45:05.983Z,88.55
2016-11-05T10:46:14.676Z,87.65
2016-11-05T10:47:23.373Z,87.7
2016-11-05T10:48:32.066Z,87.74
2016-11-05T10:49:40.757Z,87.93
2016-11-05T10:50:49.448Z,88.03
2016-11-05T10:51:58.141Z,87.37
2016-11-05T10:53:06.863Z,87.27
2016-11-05T10:54:15.552Z,88.6
2016-11-05T10:55:24.245Z,88.93
2016-11-05T10:56:32.939Z,88.07
2016-11-05T10:57:41.629Z,88.64
2016-11-05T10:58:50.317Z,88.64
2016-11-05T10:59:59.008Z,87.51
2016-11-05T11:01:07.700Z,87.7
2016-11-05T11:02:16.390Z,86.85
2016-11-05T11:03:25.078Z,86.28
2016-11-05T11:04:33.770Z,86.94
2016-11-05T11:05:42.456Z,86.66
2016-11-05T11:06:51.153Z,86.47
2016-11-05T11:07:59.869Z,86.47
2016-11-05T11:09:08.564Z,85.42
2016-11-05T11:10:17.258Z,85.61
2016-11-05T11:11:25.953Z,84.48
2016-11-05T11:12:34.969Z,85.61
2016-11-05T11:13:43.658Z,85.33
2016-11-05T11:14:52.347Z,86.09
2016-11-05T11:16:01.033Z,85.9
2016-11-05T11:17:09.733Z,84.67
2016-11-05T11:18:18.421Z,84.95
2016-11-05T11:19:27.148Z,83.44
2016-11-05T11:20:35.878Z,83.15
2016-11-05T11:21:44.567Z,83.44
2016-11-05T11:22:53.257Z,84.1
2016-11-05T11:24:01.952Z,85.24
2016-11-05T11:25:10.643Z,86.37
2016-11-05T11:26:19.334Z,87.04
2016-11-05T11:27:28.024Z,86.94
2016-11-05T11:28:36.714Z,87.98
2016-11-05T11:29:45.408Z,88.07
2016-11-05T11:30:54.099Z,87.7
2016-11-05T11:32:02.825Z,86.47
2016-11-05T11:33:11.519Z,85.24
2016-11-05T11:34:20.208Z,85.9
2016-11-05T11:35:28.896Z,85.24
2016-11-05T11:36:37.589Z,85.33
2016-11-05T11:37:46.283Z,86.75
2016-11-05T11:38:55.287Z,86.56
2016-11-05T11:40:03.982Z,86.18
2016-11-05T11:41:12.683Z,86.66
2016-11-05T11:42:21.372Z,87.04
2016-11-05T11:43:30.068Z,86.09
2016-11-05T11:44:38.787Z,86.09
2016-11-05T11:45:47.476Z,84.67
2016-11-05T11:46:56.213Z,83.63
2016-11-05T11:48:04.936Z,84.01
2016-11-05T11:49:13.626Z,85.42
2016-11-05T11:50:22.323Z,85.52
2016-11-05T11:51:31.023Z,86.75
2016-11-05T11:52:39.713Z,87.23
2016-11-05T11:53:48.403Z,87.23
2016-11-05T11:54:57.095Z,86.94
2016-11-05T11:56:05.784Z,86.37
2016-11-05T11:57:14.479Z,86.37
2016-11-05T11:58:23.167Z,85.61
2016-11-05T11:59:31.858Z,84.48
2016-11-05T12:00:40.544Z,84.95
2016-11-05T12:01:49.231Z,85.42
2016-11-05T12:02:57.927Z,85.71
2016-11-05T12:04:06.621Z,86.85
2016-11-05T12:05:15.312Z,86.28
2016-11-05T12:06:24.006Z,86.28
2016-11-05T12:07:32.694Z,87.23
2016-11-05T12:08:41.378Z,85.99
2016-11-05T12:09:50.100Z,85.99
2016-11-05T12:10:59.148Z,86.18
2016-11-05T12:12:07.844Z,87.7
2016-11-05T12:13:16.534Z,85.9
2016-11-05T12:14:25.222Z,85.24
2016-11-05T12:15:33.908Z,85.61
2016-11-05T12:16:42.599Z,83.91
2016-11-05T12:17:51.289Z,84.48
2016-11-05T12:18:59.975Z,83.91
2016-11-05T12:20:08.664Z,85.24
2016-11-05T12:21:17.358Z,84.67
2016-11-05T12:22:26.049Z,83.82
2016-11-05T12:23:34.738Z,85.24
2016-11-05T12:24:43.428Z,84.77
2016-11-05T12:25:52.116Z,85.9
2016-11-05T12:27:00.804Z,84.86
2016-11-05T12:28:09.497Z,84.2
2016-11-05T12:29:18.185Z,84.86
2016-11-05T12:30:26.875Z,86.75
2016-11-05T12:31:35.562Z,85.9
2016-11-05T12:32:44.255Z,84.01
2016-11-05T12:33:52.982Z,85.38
2016-11-05T12:35:01.681Z,85.19
2016-11-05T12:36:10.399Z,85.14
2016-11-05T12:37:19.089Z,86.37
2016-11-05T12:38:27.781Z,85.8
2016-11-05T12:39:36.475Z,87.08
2016-11-05T12:40:45.167Z,87.08
2016-11-05T12:41:53.856Z,87.37
2016-11-05T12:43:02.550Z,87.13
2016-11-05T12:44:11.272Z,85.8
2016-11-05T12:45:19.987Z,84.44
2016-11-05T12:46:28.682Z,84.39
2016-11-05T12:47:37.381Z,85
2016-11-05T12:48:46.071Z,85
2016-11-05T12:49:54.761Z,85.95
2016-11-05T12:51:03.488Z,85.28
2016-11-05T12:52:12.177Z,86.04
2016-11-05T12:53:20.871Z,85.28
2016-11-05T12:54:29.572Z,85.28
2016-11-05T12:55:38.274Z,85.66
2016-11-05T12:56:47.005Z,85.28
2016-11-05T12:57:55.691Z,85.95
2016-11-05T12:59:04.389Z,85.19
2016-11-05T13:00:13.410Z,85.47
2016-11-05T13:01:22.097Z,86.9
2016-11-05T13:02:30.789Z,87.74
2016-11-05T13:03:39.508Z,86.71
2016-11-05T13:04:48.199Z,85.38
2016-11-05T13:05:56.887Z,84.91
2016-11-05T13:07:05.602Z,84.91
2016-11-05T13:08:14.305Z,86.04
2016-11-05T13:09:23.009Z,86.99
2016-11-05T13:10:31.736Z,87.46
2016-11-05T13:11:40.423Z,87.27
2016-11-05T13:12:49.112Z,86.8
2016-11-05T13:13:57.801Z,87.18
2016-11-05T13:15:06.491Z,86.8
2016-11-05T13:16:15.186Z,86.14
2016-11-05T13:17:23.880Z,86.61
2016-11-05T13:18:32.574Z,87.37
2016-11-05T13:19:41.313Z,87.65
2016-11-05T13:20:50.235Z,87.46
2016-11-05T13:21:59.235Z,87.37
2016-11-05T13:23:08.038Z,86.71
2016-11-05T13:24:17.177Z,87.93
2016-11-05T13:25:26.109Z,88.6
2016-11-05T13:26:34.936Z,88.12
2016-11-05T13:27:43.693Z,88.88
2016-11-05T13:28:52.379Z,87.93
2016-11-05T13:30:01.096Z,87.74
2016-11-05T13:31:10.698Z,87.65
2016-11-05T13:32:19.390Z,87.46
2016-11-05T13:33:28.399Z,87.84
2016-11-05T13:34:37.092Z,88.03
2016-11-05T13:35:45.778Z,88.6
2016-11-05T13:36:54.472Z,88.88
2016-11-05T13:38:03.163Z,87.18
2016-11-05T13:39:11.854Z,88.5
2016-11-05T13:40:20.545Z,88.6
2016-11-05T13:41:29.264Z,87.74
2016-11-05T13:42:37.954Z,87.55
2016-11-05T13:43:46.644Z,87.93
2016-11-05T13:44:55.362Z,87.65
2016-11-05T13:46:04.058Z,87.18
2016-11-05T13:47:12.746Z,87.27
2016-11-05T13:48:21.441Z,88.12
2016-11-05T13:49:30.130Z,87.55
2016-11-05T13:50:38.823Z,87.65
2016-11-05T13:51:47.511Z,87.84
2016-11-05T13:52:56.207Z,89.17
2016-11-05T13:54:04.902Z,89.17
2016-11-05T13:55:13.601Z,87.93
2016-11-05T13:56:22.303Z,88.22
2016-11-05T13:57:30.990Z,88.12
2016-11-05T13:58:39.716Z,87.18
2016-11-05T13:59:48.402Z,88.98
2016-11-05T14:00:57.120Z,89.26
2016-11-05T14:02:05.850Z,88.41
2016-11-05T14:03:14.540Z,86.99
2016-11-05T14:04:23.232Z,87.55
2016-11-05T14:05:31.922Z,87.37
2016-11-05T14:06:40.610Z,87.08
2016-11-05T14:07:49.292Z,85.66
2016-11-05T14:08:57.983Z,85.47
2016-11-05T14:10:06.680Z,87.65
2016-11-05T14:11:15.370Z,87.93
2016-11-05T14:12:24.062Z,88.22
2016-11-05T14:13:32.752Z,87.51
2016-11-05T14:14:41.445Z,88.69
2016-11-05T14:15:50.134Z,87.98
2016-11-05T14:16:58.829Z,87.32
2016-11-05T14:18:07.519Z,86.23
2016-11-05T14:19:16.213Z,87.51
2016-11-05T14:20:24.903Z,87.32
2016-11-05T14:21:33.591Z,87.7
2016-11-05T14:22:42.275Z,88.46
2016-11-05T14:23:51.001Z,87.98
2016-11-05T14:24:59.686Z,89.22
2016-11-05T14:26:08.382Z,88.36
2016-11-05T14:27:17.073Z,88.36
2016-11-05T14:28:25.763Z,88.93
2016-11-05T14:29:34.452Z,88.65
2016-11-05T14:30:43.137Z,89.03
2016-11-05T14:31:51.830Z,89.4
2016-11-05T14:33:00.551Z,89.97
2016-11-05T14:34:09.241Z,90.44
2016-11-05T14:35:17.933Z,88.55
2016-11-05T14:36:26.624Z,89.03
2016-11-05T14:37:35.324Z,88.93
2016-11-05T14:38:44.068Z,90.54
2016-11-05T14:39:52.759Z,89.31
2016-11-05T14:41:01.448Z,89.31
2016-11-05T14:42:10.136Z,88.46
2016-11-05T14:43:18.826Z,87.89
2016-11-05T14:44:27.518Z,87.89
2016-11-05T14:45:36.206Z,88.74
2016-11-05T14:46:44.899Z,88.74